createdAt,value
2024-04-17T00:00:23.805Z,67937.03
2024-04-17T00:01:20.642Z,67948.06
2024-04-17T00:02:17.419Z,67938.28
2024-04-17T00:03:14.567Z,67924.88
2024-04-17T00:04:11.469Z,67932.00
2024-04-17T00:05:10.861Z,67913.56
2024-04-17T00:06:08.679Z,67919.16
2024-04-17T00:07:05.433Z,67915.94
2024-04-17T00:08:02.262Z,67960.91
2024-04-17T00:08:59.083Z,67936.47
2024-04-17T00:09:55.935Z,67943.75
2024-04-17T00:10:52.862Z,67947.63
2024-04-17T00:11:49.795Z,67980.03
2024-04-17T00:12:46.542Z,67970.97
2024-04-17T00:13:43.373Z,67939.41
2024-04-17T00:14:40.161Z,67949.88
2024-04-17T00:15:36.980Z,67945.09
2024-04-17T00:16:33.792Z,67959.38
2024-04-17T00:17:30.851Z,67959.22
2024-04-17T00:18:27.753Z,67947.75
2024-04-17T00:19:24.509Z,67959.78
2024-04-17T00:20:21.405Z,67959.94
2024-04-17T00:21:18.166Z,67973.91
2024-04-17T00:22:14.975Z,67959.38
2024-04-17T00:23:11.708Z,67948.75
2024-04-17T00:24:08.478Z,67954.03
2024-04-17T00:25:05.400Z,67943.75
2024-04-17T00:26:02.291Z,67956.13
2024-04-17T00:26:59.100Z,67956.56
2024-04-17T00:27:55.842Z,67954.47
2024-04-17T00:28:52.629Z,67973.34
2024-04-17T00:29:49.568Z,67962.16
2024-04-17T00:30:47.278Z,67929.31
2024-04-17T00:31:44.036Z,67948.88
2024-04-17T00:32:40.850Z,67962.28
2024-04-17T00:33:38.146Z,67953.22
2024-04-17T00:34:35.112Z,67938.69
2024-04-17T00:35:31.938Z,67936.91
2024-04-17T00:36:28.709Z,67943.19
2024-04-17T00:37:25.511Z,67957.56
2024-04-17T00:38:22.352Z,67973.19
2024-04-17T00:39:20.676Z,67966.63
2024-04-17T00:40:17.469Z,67958.81
2024-04-17T00:41:14.166Z,67959.50
2024-04-17T00:42:10.925Z,67968.31
2024-04-17T00:43:07.746Z,67974.47
2024-04-17T00:44:04.598Z,68003.63
2024-04-17T00:45:01.431Z,68016.34
2024-04-17T00:45:58.208Z,68014.13
2024-04-17T00:46:55.405Z,68010.22
2024-04-17T00:47:52.549Z,68016.50
2024-04-17T00:48:49.642Z,68018.16
2024-04-17T00:49:46.998Z,68013.56
2024-04-17T00:50:47.380Z,67988.66
2024-04-17T00:51:44.365Z,67996.78
2024-04-17T00:52:41.309Z,68010.78
2024-04-17T00:53:39.171Z,68019.16
2024-04-17T00:54:37.306Z,68038.84
2024-04-17T00:55:38.396Z,68037.59
2024-04-17T00:56:35.709Z,68020.84
2024-04-17T00:57:33.278Z,67999.72
2024-04-17T00:58:30.643Z,68013.00
2024-04-17T00:59:27.459Z,68033.69
2024-04-17T01:00:24.360Z,68034.38
2024-04-17T01:01:21.147Z,68020.41
2024-04-17T01:02:18.037Z,68022.53
2024-04-17T01:03:15.232Z,68008.53
2024-04-17T01:04:12.184Z,68019.72
2024-04-17T01:05:08.974Z,68013.56
2024-04-17T01:06:05.957Z,68013.00
2024-04-17T01:07:02.782Z,68003.50
2024-04-17T01:08:01.060Z,68029.22
2024-04-17T01:08:57.881Z,68032.47
2024-04-17T01:09:55.805Z,68030.34
2024-04-17T01:11:02.940Z,68028.09
2024-04-17T01:11:59.869Z,68044.88
2024-04-17T01:12:56.605Z,68024.31
2024-04-17T01:13:53.375Z,68018.03
2024-04-17T01:14:50.285Z,68038.59
2024-04-17T01:15:47.066Z,68050.59
2024-04-17T01:16:44.291Z,68033.69
2024-04-17T01:17:41.091Z,68023.66
2024-04-17T01:18:44.501Z,68011.34
2024-04-17T01:19:42.307Z,67996.78
2024-04-17T01:20:39.155Z,67997.47
2024-04-17T01:21:36.075Z,67979.47
2024-04-17T01:22:32.866Z,67976.69
2024-04-17T01:23:29.634Z,67980.03
2024-04-17T01:24:26.390Z,67988.97
2024-04-17T01:25:24.616Z,67993.88
2024-04-17T01:26:21.380Z,67988.66
2024-04-17T01:27:18.169Z,67993.44
2024-04-17T01:28:14.919Z,67949.31
2024-04-17T01:29:11.631Z,67970.41
2024-04-17T01:30:09.640Z,67995.13
2024-04-17T01:31:06.499Z,68010.78
2024-04-17T01:32:03.415Z,68010.22
2024-04-17T01:33:00.739Z,67978.34
2024-04-17T01:33:57.712Z,68013.56
2024-04-17T01:34:54.487Z,67993.56
2024-04-17T01:35:51.271Z,67957.13
2024-04-17T01:36:48.059Z,67964.38
2024-04-17T01:37:44.777Z,67950.13
2024-04-17T01:38:41.783Z,67973.19
2024-04-17T01:39:38.563Z,67985.94
2024-04-17T01:40:35.434Z,68001.25
2024-04-17T01:41:32.233Z,67994.00
2024-04-17T01:42:28.957Z,67983.38
2024-04-17T01:43:26.887Z,67973.91
2024-04-17T01:44:29.864Z,67957.13
2024-04-17T01:45:27.349Z,67961.03
2024-04-17T01:46:24.106Z,67971.66
2024-04-17T01:47:20.909Z,67985.06
2024-04-17T01:48:17.719Z,67979.34
2024-04-17T01:49:14.435Z,67969.00
2024-04-17T01:50:11.234Z,67970.41
2024-04-17T01:51:07.937Z,67959.38
2024-04-17T01:52:05.038Z,67963.41
2024-04-17T01:53:01.768Z,67957.69
2024-04-17T01:53:58.589Z,67951.53
2024-04-17T01:54:55.382Z,67943.19
2024-04-17T01:55:52.378Z,67942.63
2024-04-17T01:56:52.741Z,67955.88
2024-04-17T01:57:49.484Z,67988.16
2024-04-17T01:58:46.250Z,67983.53
2024-04-17T01:59:43.015Z,67948.31
2024-04-17T02:00:40.232Z,67923.06
2024-04-17T02:01:37.283Z,67923.06
2024-04-17T02:02:34.017Z,67928.09
2024-04-17T02:03:30.876Z,67924.63
2024-04-17T02:04:27.884Z,67936.03
2024-04-17T02:05:24.628Z,67955.88
2024-04-17T02:06:21.372Z,67964.38
2024-04-17T02:07:18.114Z,67969.28
2024-04-17T02:08:14.993Z,67978.78
2024-04-17T02:09:11.691Z,67975.03
2024-04-17T02:10:08.530Z,67954.91
2024-04-17T02:11:06.652Z,67949.44
2024-04-17T02:12:03.796Z,67970.53
2024-04-17T02:13:00.539Z,67979.34
2024-04-17T02:13:57.356Z,67965.09
2024-04-17T02:14:54.109Z,67973.34
2024-04-17T02:15:50.824Z,67978.34
2024-04-17T02:16:47.646Z,67989.41
2024-04-17T02:17:44.562Z,67959.94
2024-04-17T02:18:41.418Z,67958.81
2024-04-17T02:19:38.190Z,67957.13
2024-04-17T02:20:34.951Z,67969.97
2024-04-17T02:21:31.807Z,67999.03
2024-04-17T02:22:28.578Z,67973.34
2024-04-17T02:23:29.660Z,67958.69
2024-04-17T02:24:26.463Z,67957.69
2024-04-17T02:25:23.385Z,67940.94
2024-04-17T02:26:20.246Z,67915.81
2024-04-17T02:27:17.061Z,67937.03
2024-04-17T02:28:13.844Z,67956.03
2024-04-17T02:29:10.624Z,67965.09
2024-04-17T02:30:07.981Z,68007.41
2024-04-17T02:31:04.892Z,68002.94
2024-04-17T02:32:01.691Z,67990.66
2024-04-17T02:32:58.626Z,67957.69
2024-04-17T02:33:55.719Z,67939.25
2024-04-17T02:34:52.558Z,67932.56
2024-04-17T02:35:49.342Z,67935.91
2024-04-17T02:36:46.125Z,67943.75
2024-04-17T02:37:42.916Z,67949.19
2024-04-17T02:38:39.649Z,67963.84
2024-04-17T02:39:36.789Z,67958.81
2024-04-17T02:40:33.532Z,67942.06
2024-04-17T02:41:30.334Z,67959.38
2024-04-17T02:42:27.073Z,67962.03
2024-04-17T02:43:23.898Z,67978.91
2024-04-17T02:44:20.630Z,67994.81
2024-04-17T02:45:17.368Z,68032.56
2024-04-17T02:46:14.209Z,68025.31
2024-04-17T02:47:11.063Z,68020.41
2024-04-17T02:48:08.287Z,68011.34
2024-04-17T02:49:05.053Z,67996.22
2024-04-17T02:50:01.878Z,67980.47
2024-04-17T02:50:58.721Z,67969.41
2024-04-17T02:51:55.449Z,67957.69
2024-04-17T02:52:52.221Z,67940.38
2024-04-17T02:53:49.106Z,67913.56
2024-04-17T02:54:45.829Z,67907.88
2024-04-17T02:55:42.602Z,67904.66
2024-04-17T02:56:39.861Z,67914.56
2024-04-17T02:57:36.614Z,67901.41
2024-04-17T02:58:33.415Z,67904.09
2024-04-17T02:59:30.264Z,67897.53
2024-04-17T03:00:27.653Z,67901.72
2024-04-17T03:01:25.252Z,67909.09
2024-04-17T03:02:22.148Z,67913.03
2024-04-17T03:03:19.073Z,67919.03
2024-04-17T03:04:15.886Z,67920.84
2024-04-17T03:05:12.773Z,67924.75
2024-04-17T03:06:09.831Z,67928.66
2024-04-17T03:07:06.591Z,67904.66
2024-04-17T03:08:06.339Z,67905.31
2024-04-17T03:09:03.098Z,67905.75
2024-04-17T03:09:59.834Z,67901.84
2024-04-17T03:11:00.507Z,67904.50
2024-04-17T03:11:57.278Z,67917.50
2024-04-17T03:12:54.002Z,67910.78
2024-04-17T03:13:50.865Z,67935.47
2024-04-17T03:14:47.628Z,67955.56
2024-04-17T03:15:47.176Z,67956.69
2024-04-17T03:16:44.138Z,67948.75
2024-04-17T03:17:40.977Z,67947.22
2024-04-17T03:18:37.869Z,67949.31
2024-04-17T03:19:34.784Z,67939.81
2024-04-17T03:20:32.898Z,67928.66
2024-04-17T03:21:30.601Z,67917.50
2024-04-17T03:22:27.488Z,67916.63
2024-04-17T03:23:24.211Z,67935.34
2024-04-17T03:24:20.939Z,67957.25
2024-04-17T03:25:17.704Z,67971.66
2024-04-17T03:26:14.457Z,67974.00
2024-04-17T03:27:11.183Z,67954.34
2024-04-17T03:28:07.925Z,67948.31
2024-04-17T03:29:04.676Z,67949.88
2024-04-17T03:30:02.500Z,67947.75
2024-04-17T03:31:01.367Z,67944.84
2024-04-17T03:32:04.246Z,67978.06
2024-04-17T03:33:01.096Z,67978.91
2024-04-17T03:33:57.926Z,68010.22
2024-04-17T03:34:54.756Z,68035.38
2024-04-17T03:35:58.946Z,68024.22
2024-04-17T03:36:55.711Z,68018.59
2024-04-17T03:37:52.474Z,68010.88
2024-04-17T03:38:49.248Z,68014.56
2024-04-17T03:39:46.036Z,68017.59
2024-04-17T03:40:42.818Z,68030.91
2024-04-17T03:41:39.652Z,68019.16
2024-04-17T03:42:36.413Z,68007.41
2024-04-17T03:43:33.184Z,68000.13
2024-04-17T03:44:29.942Z,67991.63
2024-04-17T03:45:26.785Z,68024.22
2024-04-17T03:46:23.537Z,68045.88
2024-04-17T03:47:20.304Z,68019.72
2024-04-17T03:48:17.116Z,68031.44
2024-04-17T03:49:13.902Z,68020.41
2024-04-17T03:50:10.664Z,68023.66
2024-04-17T03:51:07.413Z,68018.72
2024-04-17T03:52:04.437Z,68010.88
2024-04-17T03:53:01.266Z,68035.13
2024-04-17T03:53:58.209Z,68013.56
2024-04-17T03:54:54.979Z,67998.47
2024-04-17T03:55:51.726Z,67972.22
2024-04-17T03:56:48.480Z,67969.41
2024-04-17T03:57:45.199Z,67964.84
2024-04-17T03:58:41.915Z,67979.78
2024-04-17T03:59:38.669Z,67951.53
2024-04-17T04:00:35.601Z,67943.19
2024-04-17T04:01:36.345Z,67928.22
2024-04-17T04:02:33.203Z,67923.19
2024-04-17T04:03:30.035Z,67940.38
2024-04-17T04:04:26.934Z,67938.28
2024-04-17T04:05:23.767Z,67945.84
2024-04-17T04:06:20.545Z,67977.81
2024-04-17T04:07:17.531Z,67995.69
2024-04-17T04:08:14.237Z,67985.63
2024-04-17T04:09:11.003Z,67949.31
2024-04-17T04:10:07.877Z,67928.09
2024-04-17T04:11:04.929Z,67919.72
2024-04-17T04:12:01.804Z,67918.59
2024-04-17T04:12:59.418Z,67909.66
2024-04-17T04:13:56.197Z,67925.31
2024-04-17T04:14:52.953Z,67946.09
2024-04-17T04:15:55.759Z,67963.97
2024-04-17T04:16:52.652Z,67939.81
2024-04-17T04:17:49.829Z,67915.94
2024-04-17T04:18:46.662Z,67917.50
2024-04-17T04:19:44.370Z,67917.50
2024-04-17T04:20:41.114Z,67909.09
2024-04-17T04:21:37.964Z,67925.31
2024-04-17T04:22:34.756Z,67924.75
2024-04-17T04:23:31.576Z,67901.41
2024-04-17T04:24:28.328Z,67880.06
2024-04-17T04:25:25.076Z,67867.22
2024-04-17T04:26:21.902Z,67908.13
2024-04-17T04:27:18.608Z,67888.44
2024-04-17T04:28:15.645Z,67890.25
2024-04-17T04:29:12.428Z,67872.81
2024-04-17T04:30:09.502Z,67890.13
2024-04-17T04:31:06.255Z,67878.38
2024-04-17T04:32:03.163Z,67864.41
2024-04-17T04:33:00.732Z,67869.47
2024-04-17T04:33:57.582Z,67864.56
2024-04-17T04:34:54.390Z,67857.03
2024-04-17T04:35:51.234Z,67843.78
2024-04-17T04:36:48.084Z,67844.88
2024-04-17T04:37:44.934Z,67847.69
2024-04-17T04:38:41.942Z,67838.75
2024-04-17T04:39:38.707Z,67852.97
2024-04-17T04:40:35.496Z,67886.09
2024-04-17T04:41:32.307Z,67873.91
2024-04-17T04:42:29.073Z,67875.47
2024-04-17T04:43:25.890Z,67849.47
2024-04-17T04:44:22.690Z,67843.09
2024-04-17T04:45:19.426Z,67849.78
2024-04-17T04:46:16.274Z,67837.75
2024-04-17T04:47:14.755Z,67834.84
2024-04-17T04:48:11.983Z,67840.88
2024-04-17T04:49:08.794Z,67798.03
2024-04-17T04:50:05.756Z,67838.06
2024-04-17T04:51:02.669Z,67835.41
2024-04-17T04:51:59.497Z,67833.72
2024-04-17T04:52:56.232Z,67830.94
2024-04-17T04:53:52.945Z,67841.53
2024-04-17T04:54:49.724Z,67845.03
2024-04-17T04:55:59.952Z,67836.09
2024-04-17T04:56:56.703Z,67824.81
2024-04-17T04:57:53.487Z,67854.38
2024-04-17T04:58:50.229Z,67847.25
2024-04-17T04:59:47.357Z,67849.94
2024-04-17T05:00:44.095Z,67855.06
2024-04-17T05:01:40.886Z,67859.53
2024-04-17T05:02:37.756Z,67858.28
2024-04-17T05:03:34.517Z,67838.22
2024-04-17T05:04:31.451Z,67822.56
2024-04-17T05:05:28.219Z,67858.41
2024-04-17T05:06:25.002Z,67874.59
2024-04-17T05:07:21.964Z,67862.19
2024-04-17T05:08:19.964Z,67851.03
2024-04-17T05:09:16.744Z,67826.06
2024-04-17T05:10:13.486Z,67834.28
2024-04-17T05:11:13.203Z,67834.28
2024-04-17T05:12:10.012Z,67849.38
2024-04-17T05:13:06.934Z,67873.38
2024-04-17T05:14:03.768Z,67892.22
2024-04-17T05:15:00.554Z,67879.50
2024-04-17T05:15:57.283Z,67852.69
2024-04-17T05:16:54.160Z,67822.16
2024-04-17T05:17:51.024Z,67821.47
2024-04-17T05:18:47.891Z,67837.09
2024-04-17T05:19:44.700Z,67852.16
2024-04-17T05:20:41.474Z,67859.97
2024-04-17T05:21:38.209Z,67856.06
2024-04-17T05:22:35.294Z,67878.25
2024-04-17T05:23:32.048Z,67881.75
2024-04-17T05:24:29.761Z,67880.06
2024-04-17T05:25:27.922Z,67894.03
2024-04-17T05:26:24.883Z,67885.78
2024-04-17T05:27:21.629Z,67905.22
2024-04-17T05:28:18.364Z,67902.84
2024-04-17T05:29:15.122Z,67868.91
2024-04-17T05:30:12.384Z,67851.59
2024-04-17T05:31:09.192Z,67887.34
2024-04-17T05:32:06.303Z,67892.38
2024-04-17T05:33:03.477Z,67860.28
2024-04-17T05:34:00.264Z,67899.06
2024-04-17T05:34:57.163Z,67880.63
2024-04-17T05:35:53.947Z,67853.25
2024-04-17T05:36:50.650Z,67860.09
2024-04-17T05:37:47.353Z,67878.38
2024-04-17T05:38:44.155Z,67905.75
2024-04-17T05:39:41.028Z,67920.41
2024-04-17T05:40:38.145Z,67920.28
2024-04-17T05:41:34.889Z,67899.50
2024-04-17T05:42:31.718Z,67883.97
2024-04-17T05:43:28.488Z,67900.03
2024-04-17T05:44:25.279Z,67909.66
2024-04-17T05:45:22.187Z,67865.13
2024-04-17T05:46:18.928Z,67867.09
2024-04-17T05:47:15.744Z,67858.97
2024-04-17T05:48:12.744Z,67873.91
2024-04-17T05:49:09.581Z,67885.34
2024-04-17T05:50:09.060Z,67865.13
2024-04-17T05:51:06.274Z,67868.91
2024-04-17T05:52:04.676Z,67873.22
2024-04-17T05:53:01.458Z,67865.44
2024-04-17T05:53:58.211Z,67859.41
2024-04-17T05:54:55.054Z,67857.88
2024-04-17T05:55:51.888Z,67868.75
2024-04-17T05:56:48.766Z,67853.81
2024-04-17T05:57:45.571Z,67857.16
2024-04-17T05:58:42.392Z,67861.09
2024-04-17T05:59:39.290Z,67864.97
2024-04-17T06:00:37.636Z,67846.81
2024-04-17T06:01:34.485Z,67867.22
2024-04-17T06:02:31.255Z,67888.44
2024-04-17T06:03:27.981Z,67903.38
2024-04-17T06:04:25.357Z,67888.44
2024-04-17T06:05:22.134Z,67875.59
2024-04-17T06:06:18.920Z,67874.78
2024-04-17T06:07:15.697Z,67864.00
2024-04-17T06:08:12.551Z,67862.63
2024-04-17T06:09:09.407Z,67853.81
2024-04-17T06:10:06.906Z,67858.16
2024-04-17T06:11:06.557Z,67861.66
2024-04-17T06:12:06.579Z,67841.69
2024-04-17T06:13:03.302Z,67848.91
2024-04-17T06:14:00.376Z,67853.25
2024-04-17T06:14:57.213Z,67857.72
2024-04-17T06:15:54.349Z,67861.09
2024-04-17T06:16:51.126Z,67857.16
2024-04-17T06:17:47.998Z,67857.72
2024-04-17T06:18:44.996Z,67853.69
2024-04-17T06:19:41.782Z,67851.03
2024-04-17T06:20:38.538Z,67851.59
2024-04-17T06:21:35.266Z,67855.94
2024-04-17T06:22:32.066Z,67852.69
2024-04-17T06:23:28.943Z,67853.41
2024-04-17T06:24:25.674Z,67858.28
2024-04-17T06:25:22.419Z,67853.81
2024-04-17T06:26:19.262Z,67867.78
2024-04-17T06:27:16.164Z,67877.41
2024-04-17T06:28:12.942Z,67877.81
2024-04-17T06:29:09.753Z,67894.03
2024-04-17T06:30:07.127Z,67885.66
2024-04-17T06:31:06.894Z,67897.25
2024-04-17T06:32:03.861Z,67913.44
2024-04-17T06:33:00.838Z,67914.69
2024-04-17T06:33:57.732Z,67906.88
2024-04-17T06:34:54.567Z,67901.84
2024-04-17T06:35:54.264Z,67892.22
2024-04-17T06:36:52.350Z,67867.34
2024-04-17T06:37:49.161Z,67886.22
2024-04-17T06:38:46.278Z,67884.53
2024-04-17T06:39:43.089Z,67861.66
2024-04-17T06:40:39.880Z,67857.16
2024-04-17T06:41:43.441Z,67871.69
2024-04-17T06:42:48.687Z,67883.97
2024-04-17T06:43:45.479Z,67906.88
2024-04-17T06:44:42.271Z,67920.41
2024-04-17T06:45:39.034Z,67917.50
2024-04-17T06:46:35.845Z,67890.25
2024-04-17T06:47:32.617Z,67885.38
2024-04-17T06:48:29.469Z,67878.38
2024-04-17T06:49:26.873Z,67903.84
2024-04-17T06:50:23.800Z,67920.72
2024-04-17T06:51:20.522Z,67890.00
2024-04-17T06:52:17.382Z,67877.25
2024-04-17T06:53:14.106Z,67871.13
2024-04-17T06:54:10.815Z,67869.47
2024-04-17T06:55:07.663Z,67873.22
2024-04-17T06:56:04.641Z,67874.59
2024-04-17T06:57:01.474Z,67883.44
2024-04-17T06:57:58.195Z,67886.66
2024-04-17T06:58:55.304Z,67916.38
2024-04-17T06:59:52.085Z,67923.06
2024-04-17T07:00:48.921Z,67907.44
2024-04-17T07:01:45.934Z,67920.16
2024-04-17T07:02:49.135Z,67910.66
2024-04-17T07:03:49.331Z,67933.81
2024-04-17T07:04:46.246Z,67932.69
2024-04-17T07:05:43.026Z,67936.03
2024-04-17T07:06:41.865Z,67932.13
2024-04-17T07:07:38.708Z,67942.06
2024-04-17T07:08:35.579Z,67933.13
2024-04-17T07:09:32.321Z,67930.91
2024-04-17T07:10:29.136Z,67915.25
2024-04-17T07:11:25.914Z,67932.56
2024-04-17T07:12:22.665Z,67943.44
2024-04-17T07:13:19.505Z,67950.97
2024-04-17T07:14:16.292Z,67910.22
2024-04-17T07:15:13.043Z,67887.47
2024-04-17T07:16:10.533Z,67906.44
2024-04-17T07:17:07.329Z,67936.59
2024-04-17T07:18:04.250Z,67951.53
2024-04-17T07:19:01.265Z,67961.59
2024-04-17T07:19:58.163Z,67938.28
2024-04-17T07:20:55.152Z,67934.22
2024-04-17T07:21:52.610Z,67934.78
2024-04-17T07:22:49.454Z,67974.00
2024-04-17T07:23:46.162Z,67954.91
2024-04-17T07:24:43.044Z,67966.06
2024-04-17T07:25:39.815Z,67993.00
2024-04-17T07:26:36.646Z,67997.91
2024-04-17T07:27:33.436Z,67990.66
2024-04-17T07:28:30.193Z,67993.69
2024-04-17T07:29:27.062Z,67995.81
2024-04-17T07:30:23.843Z,68007.53
2024-04-17T07:31:20.636Z,68014.66
2024-04-17T07:32:17.464Z,68008.22
2024-04-17T07:33:14.466Z,68028.66
2024-04-17T07:34:11.352Z,68000.28
2024-04-17T07:35:08.152Z,68007.97
2024-04-17T07:36:05.201Z,68033.25
2024-04-17T07:37:01.945Z,68032.16
2024-04-17T07:37:58.971Z,68033.69
2024-04-17T07:38:55.728Z,68009.78
2024-04-17T07:39:52.502Z,68013.00
2024-04-17T07:40:57.418Z,68001.16
2024-04-17T07:41:54.286Z,67994.81
2024-04-17T07:42:51.069Z,68014.13
2024-04-17T07:43:47.850Z,67998.03
2024-04-17T07:44:48.323Z,67996.78
2024-04-17T07:45:52.146Z,68004.06
2024-04-17T07:46:49.493Z,67992.19
2024-04-17T07:47:46.382Z,68002.94
2024-04-17T07:48:43.226Z,68006.84
2024-04-17T07:49:40.070Z,67993.44
2024-04-17T07:50:36.829Z,67996.94
2024-04-17T07:51:33.621Z,68009.66
2024-04-17T07:52:30.526Z,67993.56
2024-04-17T07:53:27.279Z,67979.47
2024-04-17T07:54:24.147Z,67988.97
2024-04-17T07:55:20.890Z,67986.75
2024-04-17T07:56:17.611Z,67976.69
2024-04-17T07:57:14.371Z,67977.25
2024-04-17T07:58:11.130Z,67976.00
2024-04-17T07:59:08.457Z,67983.63
2024-04-17T08:00:05.648Z,67964.38
2024-04-17T08:01:02.527Z,67960.06
2024-04-17T08:01:59.319Z,67956.56
2024-04-17T08:02:56.144Z,67937.72
2024-04-17T08:03:54.553Z,67919.28
2024-04-17T08:04:51.793Z,67948.88
2024-04-17T08:05:48.684Z,67950.88
2024-04-17T08:06:45.434Z,67962.72
2024-04-17T08:07:43.371Z,67954.47
2024-04-17T08:08:42.236Z,67972.53
2024-04-17T08:09:38.980Z,67962.16
2024-04-17T08:10:36.319Z,67958.81
2024-04-17T08:11:38.321Z,67954.34
2024-04-17T08:12:37.683Z,67964.38
2024-04-17T08:13:34.462Z,67960.59
2024-04-17T08:14:31.265Z,67986.75
2024-04-17T08:15:28.032Z,67971.22
2024-04-17T08:16:24.827Z,67973.34
2024-04-17T08:17:21.684Z,67984.38
2024-04-17T08:18:18.597Z,67988.41
2024-04-17T08:19:16.025Z,67979.34
2024-04-17T08:20:12.864Z,67971.66
2024-04-17T08:21:09.704Z,67984.50
2024-04-17T08:22:06.513Z,68013.13
2024-04-17T08:23:03.653Z,67993.00
2024-04-17T08:24:00.461Z,68009.66
2024-04-17T08:24:57.195Z,68013.81
2024-04-17T08:25:54.059Z,68021.41
2024-04-17T08:26:50.841Z,68023.75
2024-04-17T08:27:47.556Z,68028.34
2024-04-17T08:28:44.314Z,68044.75
2024-04-17T08:29:41.118Z,68017.47
2024-04-17T08:30:37.803Z,68046.69
2024-04-17T08:31:34.665Z,68012.00
2024-04-17T08:32:31.809Z,68020.97
2024-04-17T08:33:29.115Z,68020.41
2024-04-17T08:34:26.092Z,68021.09
2024-04-17T08:35:22.985Z,68053.41
2024-04-17T08:36:19.800Z,68047.34
2024-04-17T08:37:16.632Z,68018.16
2024-04-17T08:38:13.593Z,68029.09
2024-04-17T08:39:10.472Z,68003.63
2024-04-17T08:40:08.976Z,67994.56
2024-04-17T08:41:05.826Z,67980.03
2024-04-17T08:42:07.203Z,67987.41
2024-04-17T08:43:08.110Z,67973.91
2024-04-17T08:44:13.865Z,67957.81
2024-04-17T08:45:15.444Z,67945.41
2024-04-17T08:46:17.511Z,67995.00
2024-04-17T08:47:16.197Z,67974.47
2024-04-17T08:48:13.237Z,67964.53
2024-04-17T08:49:12.564Z,67979.59
2024-04-17T08:50:10.872Z,68022.53
2024-04-17T08:51:12.143Z,68020.97
2024-04-17T08:52:10.695Z,68037.06
2024-04-17T08:53:08.092Z,68044.44
2024-04-17T08:54:06.314Z,68022.63
2024-04-17T08:55:07.165Z,68011.34
2024-04-17T08:56:04.552Z,68029.09
2024-04-17T08:57:01.405Z,68039.84
2024-04-17T08:57:58.770Z,68054.38
2024-04-17T08:58:55.996Z,68068.34
2024-04-17T08:59:52.752Z,68084.00
2024-04-17T09:00:52.938Z,68087.63
2024-04-17T09:01:50.937Z,68083.56
2024-04-17T09:02:49.280Z,68075.84
2024-04-17T09:03:47.364Z,68071.28
2024-04-17T09:04:48.391Z,68075.75
2024-04-17T09:05:46.134Z,68092.97
2024-04-17T09:06:43.838Z,68074.63
2024-04-17T09:07:41.804Z,68034.81
2024-04-17T09:08:39.280Z,68064.00
2024-04-17T09:09:38.723Z,68097.44
2024-04-17T09:10:35.608Z,68097.97
2024-04-17T09:11:33.628Z,68084.56
2024-04-17T09:12:32.500Z,68067.78
2024-04-17T09:13:29.331Z,68085.13
2024-04-17T09:15:23.525Z,68113.63
2024-04-17T09:16:20.279Z,68103.56
2024-04-17T09:17:17.059Z,68085.78
2024-04-17T09:18:14.489Z,68050.44
2024-04-17T09:19:11.377Z,68055.63
2024-04-17T09:20:08.713Z,68031.59
2024-04-17T09:21:06.478Z,68035.38
2024-04-17T09:22:03.363Z,68028.09
2024-04-17T09:23:00.301Z,68057.16
2024-04-17T09:23:57.117Z,68101.31
2024-04-17T09:24:53.840Z,68128.75
2024-04-17T09:25:50.584Z,68143.25
2024-04-17T09:26:47.385Z,68135.13
2024-04-17T09:27:46.572Z,68150.81
2024-04-17T09:28:43.616Z,68161.75
2024-04-17T09:29:40.492Z,68152.38
2024-04-17T09:30:38.008Z,68128.03
2024-04-17T09:31:34.834Z,68157.41
2024-04-17T09:32:31.947Z,68169.59
2024-04-17T09:33:29.276Z,68193.06
2024-04-17T09:34:26.167Z,68164.69
2024-04-17T09:35:24.005Z,68191.41
2024-04-17T09:36:22.560Z,68190.53
2024-04-17T09:37:19.533Z,68188.19
2024-04-17T09:38:16.913Z,68188.03
2024-04-17T09:39:13.751Z,68201.16
2024-04-17T09:40:11.932Z,68212.78
2024-04-17T09:41:12.757Z,68192.09
2024-04-17T09:42:13.641Z,68180.75
2024-04-17T09:43:19.565Z,68201.72
2024-04-17T09:44:22.150Z,68213.22
2024-04-17T09:45:23.558Z,68205.66
2024-04-17T09:46:22.974Z,68225.09
2024-04-17T09:47:20.791Z,68247.38
2024-04-17T09:48:17.584Z,68258.00
2024-04-17T09:49:23.979Z,68208.31
2024-04-17T09:50:26.519Z,68162.56
2024-04-17T09:51:26.948Z,68196.44
2024-04-17T09:52:23.915Z,68218.94
2024-04-17T09:53:31.516Z,68194.88
2024-04-17T09:54:33.968Z,68168.47
2024-04-17T09:55:32.439Z,68161.88
2024-04-17T09:56:29.741Z,68171.25
2024-04-17T09:57:26.954Z,68159.09
2024-04-17T09:58:24.581Z,68160.19
2024-04-17T09:59:22.888Z,68169.72
2024-04-17T10:00:20.063Z,68199.25
2024-04-17T10:01:18.185Z,68216.69
2024-04-17T10:02:17.328Z,68205.66
2024-04-17T10:03:16.744Z,68190.28
2024-04-17T10:04:16.789Z,68158.06
2024-04-17T10:05:15.444Z,68149.16
2024-04-17T10:06:12.590Z,68143.00
2024-04-17T10:07:12.694Z,68174.06
2024-04-17T10:08:09.840Z,68200.41
2024-04-17T10:09:07.641Z,68202.03
2024-04-17T10:10:05.659Z,68179.22
2024-04-17T10:11:02.923Z,68196.56
2024-04-17T10:12:01.603Z,68176.28
2024-04-17T10:13:01.193Z,68203.41
2024-04-17T10:13:59.447Z,68205.50
2024-04-17T10:14:58.336Z,68156.41
2024-04-17T10:15:55.935Z,68196.44
2024-04-17T10:16:53.999Z,68214.91
2024-04-17T10:17:51.169Z,68203.72
2024-04-17T10:18:48.208Z,68209.44
2024-04-17T10:19:54.516Z,68217.41
2024-04-17T10:20:55.028Z,68240.66
2024-04-17T10:21:55.747Z,68255.75
2024-04-17T10:22:52.549Z,68259.22
2024-04-17T10:24:02.180Z,68253.06
2024-04-17T10:25:06.651Z,68237.41
2024-04-17T10:26:03.476Z,68201.03
2024-04-17T10:27:05.680Z,68224.13
2024-04-17T10:28:04.384Z,68229.00
2024-04-17T10:29:01.206Z,68243.56
2024-04-17T10:30:14.430Z,68254.75
2024-04-17T10:31:11.039Z,68274.25
2024-04-17T10:32:15.541Z,68288.50
2024-04-17T10:33:24.957Z,68290.75
2024-04-17T10:34:21.808Z,68265.88
2024-04-17T10:35:19.433Z,68262.47
2024-04-17T10:36:16.328Z,68245.94
2024-04-17T10:37:13.987Z,68232.38
2024-04-17T10:38:23.378Z,68228.44
2024-04-17T10:39:28.417Z,68252.09
2024-04-17T10:40:26.156Z,68252.66
2024-04-17T10:41:29.643Z,68290.19
2024-04-17T10:42:26.902Z,68319.28
2024-04-17T10:43:24.901Z,68311.22
2024-04-17T10:44:24.613Z,68280.53
2024-04-17T10:45:21.871Z,68295.78
2024-04-17T10:46:23.094Z,68269.34
2024-04-17T10:47:30.808Z,68267.66
2024-04-17T10:48:27.755Z,68285.69
2024-04-17T10:49:24.528Z,68288.94
2024-04-17T10:50:21.338Z,68285.47
2024-04-17T10:51:20.089Z,68258.56
2024-04-17T10:52:17.156Z,68259.78
2024-04-17T10:53:14.969Z,68250.72
2024-04-17T10:54:13.159Z,68260.25
2024-04-17T10:55:11.669Z,68237.97
2024-04-17T10:56:11.818Z,68238.66
2024-04-17T10:57:10.172Z,68247.94
2024-04-17T10:58:08.211Z,68240.19
2024-04-17T10:59:05.564Z,68247.47
2024-04-17T11:00:02.581Z,68261.47
2024-04-17T11:01:05.059Z,68292.84
2024-04-17T11:02:01.989Z,68295.78
2024-04-17T11:02:59.763Z,68271.13
2024-04-17T11:03:56.551Z,68208.88
2024-04-17T11:04:53.521Z,68211.66
2024-04-17T11:05:50.380Z,68233.06
2024-04-17T11:06:47.341Z,68221.88
2024-04-17T11:07:44.137Z,68230.69
2024-04-17T11:08:48.156Z,68169.25
2024-04-17T11:09:51.935Z,68159.63
2024-04-17T11:10:49.766Z,68111.53
2024-04-17T11:11:51.509Z,68108.59
2024-04-17T11:12:48.412Z,68121.03
2024-04-17T11:13:45.429Z,68135.69
2024-04-17T11:14:42.724Z,68160.75
2024-04-17T11:15:39.408Z,68114.88
2024-04-17T11:16:37.634Z,68189.72
2024-04-17T11:17:34.606Z,68124.28